This is the latest recevied weather packets stored in our database for station/object WY7EM. If no packets are shown the sender has not sent any weather packets the latest 1 day(s).
| Time | Temp. | Humidity | Pressure | Rain* | Wind** | Luminosity | Snow |
|---|---|---|---|---|---|---|---|
| 1777987748 | 10.56° C | 37% | 1010.8 hPa | 0 mm | 0.89 m/s, 38° | 30 W/m² | - |
| 1777987446 | 10.56° C | 37% | 1010.8 hPa | 0 mm | 0.45 m/s, 32° | 28 W/m² | - |
| 1777987143 | 10° C | 38% | 1010.7 hPa | 0 mm | 0.89 m/s, 80° | 27 W/m² | - |
| 1777986839 | 10.56° C | 38% | 1010.7 hPa | 0 mm | 0.45 m/s, 21° | 25 W/m² | - |
| 1777986537 | 10.56° C | 38% | 1010.6 hPa | 0 mm | 1.34 m/s, 46° | 23 W/m² | - |
| 1777986235 | 10.56° C | 38% | 1010.6 hPa | 0 mm | 0.89 m/s, 13° | 21 W/m² | - |
| 1777985932 | 10.56° C | 37% | 1010.7 hPa | 0 mm | 1.79 m/s, 116° | 19 W/m² | - |
| 1777985630 | 11.11° C | 37% | 1010.8 hPa | 0 mm | 0.89 m/s, 23° | 17 W/m² | - |
| 1777985326 | 11.67° C | 37% | 1010.3 hPa | 0 mm | 0.89 m/s, 23° | 14 W/m² | - |
| 1777985023 | 11.67° C | 37% | 1010.4 hPa | 0 mm | 1.34 m/s, 41° | 11 W/m² | - |
| 1777984719 | 11.67° C | 37% | 1010.3 hPa | 0 mm | 0.89 m/s, 85° | 8 W/m² | - |
| 1777984416 | 11.11° C | 37% | 1010.3 hPa | 0 mm | 1.79 m/s, 96° | 6 W/m² | - |
| 1777984112 | 11.11° C | 37% | 1010.3 hPa | 0 mm | 0.45 m/s, 20° | 3 W/m² | - |
| 1777983809 | 10° C | 40% | 1010.4 hPa | 0 mm | 0 m/s | 2 W/m² | - |
| 1777983506 | 10° C | 40% | 1010.3 hPa | 0 mm | 0.89 m/s, 1° | 1 W/m² | - |
| 1777983203 | 10.56° C | 38% | 1010.4 hPa | 0 mm | 0.45 m/s, 6° | 0 W/m² | - |
| 1777982899 | 10.56° C | 37% | 1010.2 hPa | 0 mm | 0 m/s | 0 W/m² | - |
| 1777982595 | 10.56° C | 37% | 1010.4 hPa | 0 mm | 0 m/s | 0 W/m² | - |
| 1777982294 | 10.56° C | 36% | 1010.5 hPa | 0 mm | 0.89 m/s, 79° | 0 W/m² | - |
| 1777981992 | 11.11° C | 35% | 1010.5 hPa | 0 mm | 0.89 m/s, 76° | 0 W/m² | - |
| 1777981689 | 11.11° C | 35% | 1010.7 hPa | 0 mm | 1.34 m/s, 52° | 0 W/m² | - |
| 1777981385 | 11.11° C | 35% | 1010.5 hPa | 0 mm | 0 m/s | 0 W/m² | - |
| 1777981082 | 11.11° C | 35% | 1010.6 hPa | 0 mm | 0 m/s | 0 W/m² | - |
| 1777980778 | 11.67° C | 34% | 1010.6 hPa | 0 mm | 0 m/s | 0 W/m² | - |
| 1777980474 | 10.56° C | 36% | 1010.6 hPa | 0 mm | 0.89 m/s, 68° | 0 W/m² | - |
* Rain latest hour (hover to see other rain measurements)
** Current wind speed in m/s (hover to see current wind gust speed)